sensor_id;sensor_type;location;lat;lon;timestamp;temperature;humidity
6581;DHT22;3324;50.796;7.228;2023-05-21T00:00:19;15.40;99.90
6581;DHT22;3324;50.796;7.228;2023-05-21T00:02:45;15.40;99.90
6581;DHT22;3324;50.796;7.228;2023-05-21T00:05:11;15.30;99.90
6581;DHT22;3324;50.796;7.228;2023-05-21T00:07:38;15.30;99.90
6581;DHT22;3324;50.796;7.228;2023-05-21T00:10:05;15.30;99.90
6581;DHT22;3324;50.796;7.228;2023-05-21T00:12:31;15.30;99.90
6581;DHT22;3324;50.796;7.228;2023-05-21T00:14:58;15.30;99.90
6581;DHT22;3324;50.796;7.228;2023-05-21T00:17:24;15.40;99.90
6581;DHT22;3324;50.796;7.228;2023-05-21T00:19:50;15.20;99.90
6581;DHT22;3324;50.796;7.228;2023-05-21T00:22:16;15.10;99.90
6581;DHT22;3324;50.796;7.228;2023-05-21T00:24:42;15.00;99.90
6581;DHT22;3324;50.796;7.228;2023-05-21T00:27:09;14.90;99.90
6581;DHT22;3324;50.796;7.228;2023-05-21T00:29:35;14.90;99.90
6581;DHT22;3324;50.796;7.228;2023-05-21T00:32:01;14.80;99.90
6581;DHT22;3324;50.796;7.228;2023-05-21T00:34:26;14.80;99.90
6581;DHT22;3324;50.796;7.228;2023-05-21T00:36:53;14.70;99.90
6581;DHT22;3324;50.796;7.228;2023-05-21T00:39:20;14.60;99.90
6581;DHT22;3324;50.796;7.228;2023-05-21T00:41:45;14.60;99.90
6581;DHT22;3324;50.796;7.228;2023-05-21T00:44:13;14.60;99.90
6581;DHT22;3324;50.796;7.228;2023-05-21T00:46:41;14.40;99.90
6581;DHT22;3324;50.796;7.228;2023-05-21T00:49:11;14.30;99.90
6581;DHT22;3324;50.796;7.228;2023-05-21T00:51:39;14.30;99.90
6581;DHT22;3324;50.796;7.228;2023-05-21T00:54:04;14.40;99.90
6581;DHT22;3324;50.796;7.228;2023-05-21T00:56:30;14.30;99.90
6581;DHT22;3324;50.796;7.228;2023-05-21T00:58:57;14.40;99.90
6581;DHT22;3324;50.796;7.228;2023-05-21T01:01:23;14.30;99.90
6581;DHT22;3324;50.796;7.228;2023-05-21T01:03:52;14.30;99.90
6581;DHT22;3324;50.796;7.228;2023-05-21T01:06:19;14.10;99.90
6581;DHT22;3324;50.796;7.228;2023-05-21T01:08:45;14.20;99.90
6581;DHT22;3324;50.796;7.228;2023-05-21T01:11:11;14.20;99.90
6581;DHT22;3324;50.796;7.228;2023-05-21T01:13:38;14.20;99.90
6581;DHT22;3324;50.796;7.228;2023-05-21T01:16:06;14.10;99.90
6581;DHT22;3324;50.796;7.228;2023-05-21T01:18:34;14.00;99.90
6581;DHT22;3324;50.796;7.228;2023-05-21T01:21:02;14.00;99.90
6581;DHT22;3324;50.796;7.228;2023-05-21T01:23:28;14.00;99.90
6581;DHT22;3324;50.796;7.228;2023-05-21T01:25:53;14.00;99.90
6581;DHT22;3324;50.796;7.228;2023-05-21T01:28:19;14.00;99.90
6581;DHT22;3324;50.796;7.228;2023-05-21T01:30:45;14.00;99.90
6581;DHT22;3324;50.796;7.228;2023-05-21T01:33:40;14.00;99.90
6581;DHT22;3324;50.796;7.228;2023-05-21T01:36:16;13.90;99.90
6581;DHT22;3324;50.796;7.228;2023-05-21T01:38:56;13.90;99.90
6581;DHT22;3324;50.796;7.228;2023-05-21T01:41:26;13.90;99.90
6581;DHT22;3324;50.796;7.228;2023-05-21T01:43:55;13.90;99.90
6581;DHT22;3324;50.796;7.228;2023-05-21T01:46:24;13.80;99.90
6581;DHT22;3324;50.796;7.228;2023-05-21T01:48:51;13.90;99.90
6581;DHT22;3324;50.796;7.228;2023-05-21T01:51:19;13.80;99.90
6581;DHT22;3324;50.796;7.228;2023-05-21T01:53:45;13.90;99.90
6581;DHT22;3324;50.796;7.228;2023-05-21T01:56:10;13.90;99.90
6581;DHT22;3324;50.796;7.228;2023-05-21T01:58:36;13.90;99.90
6581;DHT22;3324;50.796;7.228;2023-05-21T02:01:02;13.90;99.90
6581;DHT22;3324;50.796;7.228;2023-05-21T02:03:29;13.80;99.90
6581;DHT22;3324;50.796;7.228;2023-05-21T02:05:55;13.80;99.90
6581;DHT22;3324;50.796;7.228;2023-05-21T02:08:21;13.80;99.90
6581;DHT22;3324;50.796;7.228;2023-05-21T02:10:48;13.70;99.90
6581;DHT22;3324;50.796;7.228;2023-05-21T02:13:14;13.70;99.90
6581;DHT22;3324;50.796;7.228;2023-05-21T02:15:40;13.60;99.90
6581;DHT22;3324;50.796;7.228;2023-05-21T02:18:06;13.70;99.90
6581;DHT22;3324;50.796;7.228;2023-05-21T02:20:32;13.60;99.90
6581;DHT22;3324;50.796;7.228;2023-05-21T02:22:58;13.60;99.90
6581;DHT22;3324;50.796;7.228;2023-05-21T02:25:23;13.60;99.90
6581;DHT22;3324;50.796;7.228;2023-05-21T02:27:49;13.60;99.90
6581;DHT22;3324;50.796;7.228;2023-05-21T02:30:17;13.50;99.90
6581;DHT22;3324;50.796;7.228;2023-05-21T02:32:43;13.50;99.90
6581;DHT22;3324;50.796;7.228;2023-05-21T02:35:10;13.50;99.90
6581;DHT22;3324;50.796;7.228;2023-05-21T02:37:37;13.50;99.90
6581;DHT22;3324;50.796;7.228;2023-05-21T02:40:05;13.50;99.90
6581;DHT22;3324;50.796;7.228;2023-05-21T02:42:32;13.50;99.90
6581;DHT22;3324;50.796;7.228;2023-05-21T02:44:58;13.50;99.90
6581;DHT22;3324;50.796;7.228;2023-05-21T02:47:24;13.50;99.90
6581;DHT22;3324;50.796;7.228;2023-05-21T02:49:51;13.50;99.90
6581;DHT22;3324;50.796;7.228;2023-05-21T02:52:17;13.50;99.90
6581;DHT22;3324;50.796;7.228;2023-05-21T02:54:44;13.50;99.90
6581;DHT22;3324;50.796;7.228;2023-05-21T02:57:10;13.50;99.90
6581;DHT22;3324;50.796;7.228;2023-05-21T02:59:35;13.50;99.90
6581;DHT22;3324;50.796;7.228;2023-05-21T03:02:01;13.60;99.90
6581;DHT22;3324;50.796;7.228;2023-05-21T03:04:26;13.60;99.90
6581;DHT22;3324;50.796;7.228;2023-05-21T03:06:55;13.60;99.90
6581;DHT22;3324;50.796;7.228;2023-05-21T03:09:21;13.60;99.90
6581;DHT22;3324;50.796;7.228;2023-05-21T03:11:48;13.60;99.90
6581;DHT22;3324;50.796;7.228;2023-05-21T03:14:14;13.60;99.90
6581;DHT22;3324;50.796;7.228;2023-05-21T03:16:40;13.50;99.90
6581;DHT22;3324;50.796;7.228;2023-05-21T03:19:08;13.50;99.90
6581;DHT22;3324;50.796;7.228;2023-05-21T03:21:34;13.60;99.90
6581;DHT22;3324;50.796;7.228;2023-05-21T03:24:01;13.50;99.90
6581;DHT22;3324;50.796;7.228;2023-05-21T03:26:27;13.60;99.90
6581;DHT22;3324;50.796;7.228;2023-05-21T03:28:54;13.60;99.90
6581;DHT22;3324;50.796;7.228;2023-05-21T03:31:20;13.60;99.90
6581;DHT22;3324;50.796;7.228;2023-05-21T03:33:46;13.50;99.90
6581;DHT22;3324;50.796;7.228;2023-05-21T03:36:11;13.60;99.90
6581;DHT22;3324;50.796;7.228;2023-05-21T03:38:37;13.60;99.90
6581;DHT22;3324;50.796;7.228;2023-05-21T03:41:03;13.60;99.90
6581;DHT22;3324;50.796;7.228;2023-05-21T03:43:28;13.50;99.90
6581;DHT22;3324;50.796;7.228;2023-05-21T03:45:54;13.60;99.90
6581;DHT22;3324;50.796;7.228;2023-05-21T03:48:20;13.60;99.90
6581;DHT22;3324;50.796;7.228;2023-05-21T03:50:45;13.60;99.90
6581;DHT22;3324;50.796;7.228;2023-05-21T03:53:11;13.50;99.90
6581;DHT22;3324;50.796;7.228;2023-05-21T03:55:38;13.60;99.90
6581;DHT22;3324;50.796;7.228;2023-05-21T03:58:04;13.40;99.90
6581;DHT22;3324;50.796;7.228;2023-05-21T04:00:30;13.40;99.90
6581;DHT22;3324;50.796;7.228;2023-05-21T04:02:57;13.40;99.90
6581;DHT22;3324;50.796;7.228;2023-05-21T04:05:23;13.40;99.90
6581;DHT22;3324;50.796;7.228;2023-05-21T04:07:49;13.40;99.90
6581;DHT22;3324;50.796;7.228;2023-05-21T04:10:14;13.40;99.90
6581;DHT22;3324;50.796;7.228;2023-05-21T04:12:40;13.50;99.90
6581;DHT22;3324;50.796;7.228;2023-05-21T04:15:06;13.40;99.90
6581;DHT22;3324;50.796;7.228;2023-05-21T04:17:32;13.50;99.90
6581;DHT22;3324;50.796;7.228;2023-05-21T04:19:59;13.60;99.90
6581;DHT22;3324;50.796;7.228;2023-05-21T04:22:24;13.60;99.90
6581;DHT22;3324;50.796;7.228;2023-05-21T04:24:52;13.50;99.90
6581;DHT22;3324;50.796;7.228;2023-05-21T04:27:20;13.60;99.90
6581;DHT22;3324;50.796;7.228;2023-05-21T04:29:48;13.60;99.90
6581;DHT22;3324;50.796;7.228;2023-05-21T04:32:14;13.60;99.90
6581;DHT22;3324;50.796;7.228;2023-05-21T04:34:42;13.50;99.90
6581;DHT22;3324;50.796;7.228;2023-05-21T04:37:08;13.50;99.90
6581;DHT22;3324;50.796;7.228;2023-05-21T04:39:33;13.50;99.90
6581;DHT22;3324;50.796;7.228;2023-05-21T04:41:59;13.50;99.90
6581;DHT22;3324;50.796;7.228;2023-05-21T04:44:30;13.50;99.90
6581;DHT22;3324;50.796;7.228;2023-05-21T04:46:55;13.50;99.90
6581;DHT22;3324;50.796;7.228;2023-05-21T04:49:21;13.50;99.90
6581;DHT22;3324;50.796;7.228;2023-05-21T04:51:47;13.50;99.90
6581;DHT22;3324;50.796;7.228;2023-05-21T04:54:14;13.50;99.90
6581;DHT22;3324;50.796;7.228;2023-05-21T04:56:39;13.50;99.90
6581;DHT22;3324;50.796;7.228;2023-05-21T04:59:05;13.60;99.90
6581;DHT22;3324;50.796;7.228;2023-05-21T05:01:31;13.60;99.90
6581;DHT22;3324;50.796;7.228;2023-05-21T05:03:59;13.60;99.90
6581;DHT22;3324;50.796;7.228;2023-05-21T05:06:25;13.60;99.90
6581;DHT22;3324;50.796;7.228;2023-05-21T05:08:51;13.60;99.90
6581;DHT22;3324;50.796;7.228;2023-05-21T05:11:16;13.70;99.90
6581;DHT22;3324;50.796;7.228;2023-05-21T05:13:42;13.70;99.90
6581;DHT22;3324;50.796;7.228;2023-05-21T05:16:08;13.70;99.90
6581;DHT22;3324;50.796;7.228;2023-05-21T05:18:34;13.70;99.90
6581;DHT22;3324;50.796;7.228;2023-05-21T05:21:01;13.80;99.90
6581;DHT22;3324;50.796;7.228;2023-05-21T05:23:26;13.90;99.90
6581;DHT22;3324;50.796;7.228;2023-05-21T05:25:52;14.00;99.90
6581;DHT22;3324;50.796;7.228;2023-05-21T05:28:17;14.00;99.90
6581;DHT22;3324;50.796;7.228;2023-05-21T05:30:43;14.00;99.90
6581;DHT22;3324;50.796;7.228;2023-05-21T05:33:09;14.00;99.90
6581;DHT22;3324;50.796;7.228;2023-05-21T05:35:35;14.00;99.90
6581;DHT22;3324;50.796;7.228;2023-05-21T05:38:01;14.00;99.90
6581;DHT22;3324;50.796;7.228;2023-05-21T05:40:26;14.10;99.90
6581;DHT22;3324;50.796;7.228;2023-05-21T05:42:52;14.10;99.90
6581;DHT22;3324;50.796;7.228;2023-05-21T05:45:18;14.10;99.90
6581;DHT22;3324;50.796;7.228;2023-05-21T05:47:44;14.10;99.90
6581;DHT22;3324;50.796;7.228;2023-05-21T05:50:10;14.20;99.90
6581;DHT22;3324;50.796;7.228;2023-05-21T05:52:35;14.20;99.90
6581;DHT22;3324;50.796;7.228;2023-05-21T05:55:01;14.20;99.90
6581;DHT22;3324;50.796;7.228;2023-05-21T05:57:26;14.20;99.90
6581;DHT22;3324;50.796;7.228;2023-05-21T05:59:52;14.30;99.90
6581;DHT22;3324;50.796;7.228;2023-05-21T06:02:18;14.40;99.90
6581;DHT22;3324;50.796;7.228;2023-05-21T06:04:43;14.40;99.90
6581;DHT22;3324;50.796;7.228;2023-05-21T06:07:09;14.50;99.90
6581;DHT22;3324;50.796;7.228;2023-05-21T06:09:35;14.50;99.90
6581;DHT22;3324;50.796;7.228;2023-05-21T06:12:00;14.60;99.90
6581;DHT22;3324;50.796;7.228;2023-05-21T06:14:26;14.70;99.90
6581;DHT22;3324;50.796;7.228;2023-05-21T06:16:51;14.70;99.90
6581;DHT22;3324;50.796;7.228;2023-05-21T06:19:17;14.80;99.90
6581;DHT22;3324;50.796;7.228;2023-05-21T06:21:43;14.90;99.90
6581;DHT22;3324;50.796;7.228;2023-05-21T06:24:08;15.00;99.90
6581;DHT22;3324;50.796;7.228;2023-05-21T06:26:34;15.10;99.90
6581;DHT22;3324;50.796;7.228;2023-05-21T06:28:59;15.20;99.90
6581;DHT22;3324;50.796;7.228;2023-05-21T06:31:25;15.20;99.90
6581;DHT22;3324;50.796;7.228;2023-05-21T06:33:50;15.30;99.90
6581;DHT22;3324;50.796;7.228;2023-05-21T06:36:16;15.40;99.90
6581;DHT22;3324;50.796;7.228;2023-05-21T06:38:42;15.50;99.90
6581;DHT22;3324;50.796;7.228;2023-05-21T06:41:08;15.50;99.90
6581;DHT22;3324;50.796;7.228;2023-05-21T06:43:33;15.60;99.90
6581;DHT22;3324;50.796;7.228;2023-05-21T06:45:59;15.70;99.90
6581;DHT22;3324;50.796;7.228;2023-05-21T06:48:25;15.80;99.90
6581;DHT22;3324;50.796;7.228;2023-05-21T06:50:51;15.80;99.90
6581;DHT22;3324;50.796;7.228;2023-05-21T06:53:17;15.90;99.90
6581;DHT22;3324;50.796;7.228;2023-05-21T06:55:43;15.90;99.90
6581;DHT22;3324;50.796;7.228;2023-05-21T06:58:11;16.00;99.90
6581;DHT22;3324;50.796;7.228;2023-05-21T07:00:36;16.20;99.90
6581;DHT22;3324;50.796;7.228;2023-05-21T07:03:02;16.30;99.90
6581;DHT22;3324;50.796;7.228;2023-05-21T07:05:28;16.50;99.90
6581;DHT22;3324;50.796;7.228;2023-05-21T07:07:53;16.60;99.90
6581;DHT22;3324;50.796;7.228;2023-05-21T07:10:19;16.90;99.90
6581;DHT22;3324;50.796;7.228;2023-05-21T07:12:44;17.10;99.90
6581;DHT22;3324;50.796;7.228;2023-05-21T07:15:10;17.30;99.90
6581;DHT22;3324;50.796;7.228;2023-05-21T07:17:36;17.40;99.90
6581;DHT22;3324;50.796;7.228;2023-05-21T07:20:03;17.40;99.90
6581;DHT22;3324;50.796;7.228;2023-05-21T07:22:32;17.50;99.90
6581;DHT22;3324;50.796;7.228;2023-05-21T07:24:57;17.50;99.90
6581;DHT22;3324;50.796;7.228;2023-05-21T07:27:23;17.60;99.90
6581;DHT22;3324;50.796;7.228;2023-05-21T07:29:48;17.70;99.90
6581;DHT22;3324;50.796;7.228;2023-05-21T07:32:14;17.90;99.90
6581;DHT22;3324;50.796;7.228;2023-05-21T07:34:40;18.10;99.90
6581;DHT22;3324;50.796;7.228;2023-05-21T07:37:05;18.20;99.90
6581;DHT22;3324;50.796;7.228;2023-05-21T07:39:31;18.30;99.90
6581;DHT22;3324;50.796;7.228;2023-05-21T07:41:56;18.30;99.90
6581;DHT22;3324;50.796;7.228;2023-05-21T07:44:22;18.30;99.90
6581;DHT22;3324;50.796;7.228;2023-05-21T07:46:48;18.30;99.90
6581;DHT22;3324;50.796;7.228;2023-05-21T07:49:14;18.50;99.90
6581;DHT22;3324;50.796;7.228;2023-05-21T07:51:42;18.70;99.90
6581;DHT22;3324;50.796;7.228;2023-05-21T07:54:08;18.90;99.90
6581;DHT22;3324;50.796;7.228;2023-05-21T07:56:34;19.00;99.90
6581;DHT22;3324;50.796;7.228;2023-05-21T07:58:59;19.20;99.90
6581;DHT22;3324;50.796;7.228;2023-05-21T08:01:26;19.40;99.90
6581;DHT22;3324;50.796;7.228;2023-05-21T08:03:54;19.60;99.90
6581;DHT22;3324;50.796;7.228;2023-05-21T08:06:19;19.70;99.90
6581;DHT22;3324;50.796;7.228;2023-05-21T08:08:46;19.80;99.90
6581;DHT22;3324;50.796;7.228;2023-05-21T08:11:12;19.90;99.90
6581;DHT22;3324;50.796;7.228;2023-05-21T08:13:38;20.00;99.90
6581;DHT22;3324;50.796;7.228;2023-05-21T08:16:04;20.10;99.90
6581;DHT22;3324;50.796;7.228;2023-05-21T08:18:30;20.30;99.90
6581;DHT22;3324;50.796;7.228;2023-05-21T08:20:56;20.30;99.90
6581;DHT22;3324;50.796;7.228;2023-05-21T08:23:21;20.40;99.90
6581;DHT22;3324;50.796;7.228;2023-05-21T08:25:47;20.40;99.90
6581;DHT22;3324;50.796;7.228;2023-05-21T08:28:13;20.50;99.90
6581;DHT22;3324;50.796;7.228;2023-05-21T08:30:38;20.60;99.90
6581;DHT22;3324;50.796;7.228;2023-05-21T08:33:04;20.60;99.90
6581;DHT22;3324;50.796;7.228;2023-05-21T08:35:30;20.60;99.90
6581;DHT22;3324;50.796;7.228;2023-05-21T08:37:55;20.40;99.90
6581;DHT22;3324;50.796;7.228;2023-05-21T08:40:21;20.20;99.90
6581;DHT22;3324;50.796;7.228;2023-05-21T08:42:47;20.10;99.90
6581;DHT22;3324;50.796;7.228;2023-05-21T08:45:21;20.00;99.90
6581;DHT22;3324;50.796;7.228;2023-05-21T08:47:56;19.90;99.90
6581;DHT22;3324;50.796;7.228;2023-05-21T08:50:25;20.00;99.90
6581;DHT22;3324;50.796;7.228;2023-05-21T08:52:51;20.00;99.90
6581;DHT22;3324;50.796;7.228;2023-05-21T08:55:17;20.10;99.90
6581;DHT22;3324;50.796;7.228;2023-05-21T08:57:43;20.20;99.90
6581;DHT22;3324;50.796;7.228;2023-05-21T09:00:10;20.30;99.90
6581;DHT22;3324;50.796;7.228;2023-05-21T09:02:37;20.40;99.90
6581;DHT22;3324;50.796;7.228;2023-05-21T09:05:05;20.50;99.90
6581;DHT22;3324;50.796;7.228;2023-05-21T09:07:38;20.70;99.90
6581;DHT22;3324;50.796;7.228;2023-05-21T09:10:11;20.80;99.90
6581;DHT22;3324;50.796;7.228;2023-05-21T09:12:37;20.90;99.90
6581;DHT22;3324;50.796;7.228;2023-05-21T09:15:03;21.10;99.90
6581;DHT22;3324;50.796;7.228;2023-05-21T09:17:29;21.20;99.90
6581;DHT22;3324;50.796;7.228;2023-05-21T09:20:12;21.20;99.90
6581;DHT22;3324;50.796;7.228;2023-05-21T09:25:06;21.50;99.90
6581;DHT22;3324;50.796;7.228;2023-05-21T09:27:33;21.70;99.90
6581;DHT22;3324;50.796;7.228;2023-05-21T09:30:03;21.90;99.90
6581;DHT22;3324;50.796;7.228;2023-05-21T09:32:29;22.10;99.90
6581;DHT22;3324;50.796;7.228;2023-05-21T09:34:55;22.20;99.90
6581;DHT22;3324;50.796;7.228;2023-05-21T09:37:20;22.20;99.90
6581;DHT22;3324;50.796;7.228;2023-05-21T09:39:47;22.30;99.90
6581;DHT22;3324;50.796;7.228;2023-05-21T09:42:13;22.30;99.90
6581;DHT22;3324;50.796;7.228;2023-05-21T09:44:41;22.20;99.90
6581;DHT22;3324;50.796;7.228;2023-05-21T09:47:07;22.20;99.90
6581;DHT22;3324;50.796;7.228;2023-05-21T09:49:36;22.20;99.90
6581;DHT22;3324;50.796;7.228;2023-05-21T09:52:01;22.30;99.90
6581;DHT22;3324;50.796;7.228;2023-05-21T09:54:31;22.40;99.90
6581;DHT22;3324;50.796;7.228;2023-05-21T09:57:00;22.60;99.90
6581;DHT22;3324;50.796;7.228;2023-05-21T09:59:38;22.80;99.90
6581;DHT22;3324;50.796;7.228;2023-05-21T10:02:21;23.10;99.90
6581;DHT22;3324;50.796;7.228;2023-05-21T10:04:48;23.20;99.90
6581;DHT22;3324;50.796;7.228;2023-05-21T10:07:19;23.40;99.90
6581;DHT22;3324;50.796;7.228;2023-05-21T10:09:56;23.40;99.90
6581;DHT22;3324;50.796;7.228;2023-05-21T10:12:22;23.60;99.90
6581;DHT22;3324;50.796;7.228;2023-05-21T10:14:58;23.70;99.90
6581;DHT22;3324;50.796;7.228;2023-05-21T10:17:27;23.90;99.90
6581;DHT22;3324;50.796;7.228;2023-05-21T10:19:55;24.10;99.90
6581;DHT22;3324;50.796;7.228;2023-05-21T10:22:23;24.20;99.90
6581;DHT22;3324;50.796;7.228;2023-05-21T10:24:49;24.40;99.90
6581;DHT22;3324;50.796;7.228;2023-05-21T10:27:17;24.60;99.90
6581;DHT22;3324;50.796;7.228;2023-05-21T10:29:43;24.60;99.90
6581;DHT22;3324;50.796;7.228;2023-05-21T10:32:11;24.70;99.90
6581;DHT22;3324;50.796;7.228;2023-05-21T10:34:37;24.80;99.90
6581;DHT22;3324;50.796;7.228;2023-05-21T10:37:03;24.90;99.90
6581;DHT22;3324;50.796;7.228;2023-05-21T10:39:32;24.90;99.90
6581;DHT22;3324;50.796;7.228;2023-05-21T10:42:01;24.90;99.90
6581;DHT22;3324;50.796;7.228;2023-05-21T10:44:39;24.90;99.90
6581;DHT22;3324;50.796;7.228;2023-05-21T11:00:53;25.60;99.90
6581;DHT22;3324;50.796;7.228;2023-05-21T11:03:20;25.60;99.90
6581;DHT22;3324;50.796;7.228;2023-05-21T11:05:56;25.80;99.90
6581;DHT22;3324;50.796;7.228;2023-05-21T11:08:26;25.70;99.90
6581;DHT22;3324;50.796;7.228;2023-05-21T11:10:53;25.90;99.90
6581;DHT22;3324;50.796;7.228;2023-05-21T11:13:20;26.00;99.90
6581;DHT22;3324;50.796;7.228;2023-05-21T11:21:11;25.60;99.90
6581;DHT22;3324;50.796;7.228;2023-05-21T11:26:20;25.80;99.90
6581;DHT22;3324;50.796;7.228;2023-05-21T11:31:30;26.00;99.90
6581;DHT22;3324;50.796;7.228;2023-05-21T11:34:19;26.10;99.90
6581;DHT22;3324;50.796;7.228;2023-05-21T11:36:47;26.10;99.90
6581;DHT22;3324;50.796;7.228;2023-05-21T11:39:14;26.10;99.90
6581;DHT22;3324;50.796;7.228;2023-05-21T11:44:16;26.30;99.90
6581;DHT22;3324;50.796;7.228;2023-05-21T11:46:42;26.50;99.90
6581;DHT22;3324;50.796;7.228;2023-05-21T11:49:08;26.60;99.90
6581;DHT22;3324;50.796;7.228;2023-05-21T11:51:35;26.70;99.90
6581;DHT22;3324;50.796;7.228;2023-05-21T11:54:01;26.70;99.90
6581;DHT22;3324;50.796;7.228;2023-05-21T11:56:27;26.60;99.90
6581;DHT22;3324;50.796;7.228;2023-05-21T11:58:56;26.60;99.90
6581;DHT22;3324;50.796;7.228;2023-05-21T12:01:24;26.60;99.90
6581;DHT22;3324;50.796;7.228;2023-05-21T12:03:50;26.60;99.90
6581;DHT22;3324;50.796;7.228;2023-05-21T12:06:16;26.70;99.90
6581;DHT22;3324;50.796;7.228;2023-05-21T12:08:42;26.70;99.90
6581;DHT22;3324;50.796;7.228;2023-05-21T12:11:09;26.70;99.90
6581;DHT22;3324;50.796;7.228;2023-05-21T12:13:35;26.70;99.90
6581;DHT22;3324;50.796;7.228;2023-05-21T12:16:02;26.70;99.90
6581;DHT22;3324;50.796;7.228;2023-05-21T12:18:27;26.60;99.90
6581;DHT22;3324;50.796;7.228;2023-05-21T12:20:53;26.50;99.90
6581;DHT22;3324;50.796;7.228;2023-05-21T12:23:23;26.50;99.90
6581;DHT22;3324;50.796;7.228;2023-05-21T12:25:49;26.50;99.90
6581;DHT22;3324;50.796;7.228;2023-05-21T12:28:15;26.40;99.90
6581;DHT22;3324;50.796;7.228;2023-05-21T12:30:41;26.30;99.90
6581;DHT22;3324;50.796;7.228;2023-05-21T12:33:06;26.40;99.90
6581;DHT22;3324;50.796;7.228;2023-05-21T12:35:32;26.50;99.90
6581;DHT22;3324;50.796;7.228;2023-05-21T12:38:00;26.50;99.90
6581;DHT22;3324;50.796;7.228;2023-05-21T12:40:36;26.50;99.90
6581;DHT22;3324;50.796;7.228;2023-05-21T12:43:03;26.60;99.90
6581;DHT22;3324;50.796;7.228;2023-05-21T12:45:30;26.60;99.90
6581;DHT22;3324;50.796;7.228;2023-05-21T12:47:59;26.60;99.90
6581;DHT22;3324;50.796;7.228;2023-05-21T12:50:25;26.60;99.90
6581;DHT22;3324;50.796;7.228;2023-05-21T12:52:54;26.60;99.90
6581;DHT22;3324;50.796;7.228;2023-05-21T12:55:24;26.80;99.90
6581;DHT22;3324;50.796;7.228;2023-05-21T12:58:03;26.90;99.90
6581;DHT22;3324;50.796;7.228;2023-05-21T13:00:31;27.00;99.90
6581;DHT22;3324;50.796;7.228;2023-05-21T13:02:56;27.20;99.90
6581;DHT22;3324;50.796;7.228;2023-05-21T13:05:24;27.50;99.90
6581;DHT22;3324;50.796;7.228;2023-05-21T13:07:50;27.60;99.90
6581;DHT22;3324;50.796;7.228;2023-05-21T13:10:16;27.70;99.90
6581;DHT22;3324;50.796;7.228;2023-05-21T13:12:42;27.70;99.90
6581;DHT22;3324;50.796;7.228;2023-05-21T13:15:09;27.80;99.90
6581;DHT22;3324;50.796;7.228;2023-05-21T13:17:35;27.90;99.90
6581;DHT22;3324;50.796;7.228;2023-05-21T13:20:09;28.00;99.90
6581;DHT22;3324;50.796;7.228;2023-05-21T13:22:37;28.00;99.90
6581;DHT22;3324;50.796;7.228;2023-05-21T13:25:11;27.90;99.90
6581;DHT22;3324;50.796;7.228;2023-05-21T13:27:40;27.80;99.90
6581;DHT22;3324;50.796;7.228;2023-05-21T13:30:06;27.80;99.90
6581;DHT22;3324;50.796;7.228;2023-05-21T13:32:32;27.80;99.90
6581;DHT22;3324;50.796;7.228;2023-05-21T13:34:58;27.90;99.90
6581;DHT22;3324;50.796;7.228;2023-05-21T13:37:23;27.90;99.90
6581;DHT22;3324;50.796;7.228;2023-05-21T13:39:49;28.00;99.90
6581;DHT22;3324;50.796;7.228;2023-05-21T13:42:15;27.90;99.90
6581;DHT22;3324;50.796;7.228;2023-05-21T13:44:41;27.90;99.90
6581;DHT22;3324;50.796;7.228;2023-05-21T13:47:07;28.00;99.90
6581;DHT22;3324;50.796;7.228;2023-05-21T13:49:34;28.00;99.90
6581;DHT22;3324;50.796;7.228;2023-05-21T13:52:01;28.00;99.90
6581;DHT22;3324;50.796;7.228;2023-05-21T13:54:27;27.90;99.90
6581;DHT22;3324;50.796;7.228;2023-05-21T13:56:52;27.90;99.90
6581;DHT22;3324;50.796;7.228;2023-05-21T13:59:18;27.80;99.90
6581;DHT22;3324;50.796;7.228;2023-05-21T14:01:44;27.80;99.90
6581;DHT22;3324;50.796;7.228;2023-05-21T14:04:10;27.80;99.90
6581;DHT22;3324;50.796;7.228;2023-05-21T14:06:36;27.60;99.90
6581;DHT22;3324;50.796;7.228;2023-05-21T14:09:03;27.50;99.90
6581;DHT22;3324;50.796;7.228;2023-05-21T14:11:29;27.40;99.90
6581;DHT22;3324;50.796;7.228;2023-05-21T14:13:56;27.50;99.90
6581;DHT22;3324;50.796;7.228;2023-05-21T14:16:23;27.50;99.90
6581;DHT22;3324;50.796;7.228;2023-05-21T14:19:00;27.40;99.90
6581;DHT22;3324;50.796;7.228;2023-05-21T14:21:26;27.30;99.90
6581;DHT22;3324;50.796;7.228;2023-05-21T14:23:51;27.20;99.90
6581;DHT22;3324;50.796;7.228;2023-05-21T14:26:17;27.20;99.90
6581;DHT22;3324;50.796;7.228;2023-05-21T14:28:43;27.30;99.90
6581;DHT22;3324;50.796;7.228;2023-05-21T14:31:09;27.40;99.90
6581;DHT22;3324;50.796;7.228;2023-05-21T14:33:36;27.30;99.90
6581;DHT22;3324;50.796;7.228;2023-05-21T14:36:02;27.30;99.90
6581;DHT22;3324;50.796;7.228;2023-05-21T14:38:28;27.40;99.90
6581;DHT22;3324;50.796;7.228;2023-05-21T14:40:53;27.30;99.90
6581;DHT22;3324;50.796;7.228;2023-05-21T14:43:19;27.30;99.90
6581;DHT22;3324;50.796;7.228;2023-05-21T14:45:45;27.00;99.90
6581;DHT22;3324;50.796;7.228;2023-05-21T14:48:11;26.80;99.90
6581;DHT22;3324;50.796;7.228;2023-05-21T14:50:36;26.70;99.90
6581;DHT22;3324;50.796;7.228;2023-05-21T14:53:06;26.50;99.90
6581;DHT22;3324;50.796;7.228;2023-05-21T14:55:33;26.40;99.90
6581;DHT22;3324;50.796;7.228;2023-05-21T14:57:59;26.40;99.90
6581;DHT22;3324;50.796;7.228;2023-05-21T15:00:25;26.30;99.90
6581;DHT22;3324;50.796;7.228;2023-05-21T15:02:51;26.30;99.90
6581;DHT22;3324;50.796;7.228;2023-05-21T15:05:17;26.10;99.90
6581;DHT22;3324;50.796;7.228;2023-05-21T15:07:43;26.10;99.90
6581;DHT22;3324;50.796;7.228;2023-05-21T15:10:08;26.00;99.90
6581;DHT22;3324;50.796;7.228;2023-05-21T15:12:35;26.00;99.90
6581;DHT22;3324;50.796;7.228;2023-05-21T15:15:00;26.00;99.90
6581;DHT22;3324;50.796;7.228;2023-05-21T15:17:26;26.00;99.90
6581;DHT22;3324;50.796;7.228;2023-05-21T15:19:52;26.10;99.90
6581;DHT22;3324;50.796;7.228;2023-05-21T15:22:17;26.00;99.90
6581;DHT22;3324;50.796;7.228;2023-05-21T15:24:43;25.90;99.90
6581;DHT22;3324;50.796;7.228;2023-05-21T15:27:09;26.00;99.90
6581;DHT22;3324;50.796;7.228;2023-05-21T15:29:35;25.90;99.90
6581;DHT22;3324;50.796;7.228;2023-05-21T15:32:00;25.70;99.90
6581;DHT22;3324;50.796;7.228;2023-05-21T15:34:30;25.60;99.90
6581;DHT22;3324;50.796;7.228;2023-05-21T15:36:55;25.40;99.90
6581;DHT22;3324;50.796;7.228;2023-05-21T15:39:22;25.30;99.90
6581;DHT22;3324;50.796;7.228;2023-05-21T15:41:48;25.20;99.90
6581;DHT22;3324;50.796;7.228;2023-05-21T15:44:13;25.20;99.90
6581;DHT22;3324;50.796;7.228;2023-05-21T15:46:39;25.10;99.90
6581;DHT22;3324;50.796;7.228;2023-05-21T15:49:05;25.00;99.90
6581;DHT22;3324;50.796;7.228;2023-05-21T15:51:30;24.80;99.90
6581;DHT22;3324;50.796;7.228;2023-05-21T15:53:56;24.80;99.90
6581;DHT22;3324;50.796;7.228;2023-05-21T15:56:21;24.80;99.90
6581;DHT22;3324;50.796;7.228;2023-05-21T15:58:47;24.80;99.90
6581;DHT22;3324;50.796;7.228;2023-05-21T16:01:13;24.80;99.90
6581;DHT22;3324;50.796;7.228;2023-05-21T16:03:38;24.80;99.90
6581;DHT22;3324;50.796;7.228;2023-05-21T16:06:04;24.80;99.90
6581;DHT22;3324;50.796;7.228;2023-05-21T16:08:31;24.80;99.90
6581;DHT22;3324;50.796;7.228;2023-05-21T16:10:57;24.80;99.90
6581;DHT22;3324;50.796;7.228;2023-05-21T16:13:22;24.80;99.90
6581;DHT22;3324;50.796;7.228;2023-05-21T16:15:48;24.80;99.90
6581;DHT22;3324;50.796;7.228;2023-05-21T16:18:13;24.80;99.90
6581;DHT22;3324;50.796;7.228;2023-05-21T16:20:39;24.70;99.90
6581;DHT22;3324;50.796;7.228;2023-05-21T16:23:05;24.60;99.90
6581;DHT22;3324;50.796;7.228;2023-05-21T16:25:31;24.60;99.90
6581;DHT22;3324;50.796;7.228;2023-05-21T16:27:57;24.50;99.90